createdAt,value
2018-04-14T00:01:21.507Z,13.17
2018-04-14T00:03:49.046Z,12.93
2018-04-14T00:06:16.881Z,13.37
2018-04-14T00:08:44.746Z,13.10
2018-04-14T00:11:12.272Z,13.63
2018-04-14T00:13:40.074Z,13.60
2018-04-14T00:16:07.614Z,15.30
2018-04-14T00:18:35.141Z,15.87
2018-04-14T00:21:02.758Z,16.33
2018-04-14T00:23:30.521Z,14.20
2018-04-14T00:25:58.904Z,14.83
2018-04-14T00:28:26.776Z,15.30
2018-04-14T00:30:54.285Z,14.20
2018-04-14T00:33:21.807Z,13.47
2018-04-14T00:35:49.336Z,14.10
2018-04-14T00:38:16.851Z,15.03
2018-04-14T00:40:44.669Z,14.60
2018-04-14T00:43:12.252Z,15.53
2018-04-14T00:45:39.765Z,14.47
2018-04-14T00:48:07.686Z,15.50
2018-04-14T00:50:35.276Z,15.33
2018-04-14T00:53:15.106Z,16.10
2018-04-14T00:55:42.655Z,16.40
2018-04-14T00:58:10.176Z,17.00
2018-04-14T01:00:37.718Z,17.80
2018-04-14T01:03:05.343Z,17.50
2018-04-14T01:05:32.859Z,18.73
2018-04-14T01:08:00.378Z,20.60
2018-04-14T01:10:27.938Z,21.07
2018-04-14T01:12:55.463Z,19.53
2018-04-14T01:15:22.983Z,20.40
2018-04-14T01:17:50.514Z,20.63
2018-04-14T01:20:18.042Z,21.33
2018-04-14T01:22:45.726Z,21.93
2018-04-14T01:25:13.266Z,20.47
2018-04-14T01:27:40.768Z,20.80
2018-04-14T01:30:08.631Z,22.30
2018-04-14T01:32:36.189Z,20.10
2018-04-14T01:35:03.708Z,20.83
2018-04-14T01:37:31.205Z,19.70
2018-04-14T01:39:59.423Z,21.70
2018-04-14T01:42:27.208Z,20.27
2018-04-14T01:44:54.728Z,20.23
2018-04-14T01:47:22.257Z,21.63
2018-04-14T01:49:50.094Z,21.03
2018-04-14T01:52:17.606Z,24.20
2018-04-14T01:54:45.139Z,22.67
2018-04-14T01:57:12.646Z,22.83
2018-04-14T01:59:40.162Z,22.70
2018-04-14T02:02:07.693Z,24.60
2018-04-14T02:04:35.192Z,23.93
2018-04-14T02:07:41.052Z,23.90
2018-04-14T02:10:08.881Z,23.10
2018-04-14T02:12:36.658Z,23.20
2018-04-14T02:15:04.521Z,24.70
2018-04-14T02:17:32.040Z,24.10
2018-04-14T02:19:59.537Z,25.53
2018-04-14T02:22:27.073Z,25.07
2018-04-14T02:24:54.635Z,24.80
2018-04-14T02:27:22.433Z,25.43
2018-04-14T02:29:49.978Z,23.80
2018-04-14T02:32:17.521Z,26.87
2018-04-14T02:34:45.049Z,25.60
2018-04-14T02:37:12.604Z,25.43
2018-04-14T02:39:40.143Z,24.40
2018-04-14T02:42:07.693Z,25.23
2018-04-14T02:44:35.801Z,25.43
2018-04-14T02:47:03.359Z,25.43
2018-04-14T02:49:30.888Z,25.57
2018-04-14T02:51:58.754Z,24.23
2018-04-14T02:54:26.288Z,25.00
2018-04-14T02:56:53.865Z,25.07
2018-04-14T02:59:21.471Z,26.00
2018-04-14T03:01:49.033Z,25.27
2018-04-14T03:04:16.548Z,27.07
2018-04-14T03:06:44.094Z,25.63
2018-04-14T03:09:11.614Z,27.60
2018-04-14T03:11:39.127Z,27.73
2018-04-14T03:14:06.677Z,27.73
2018-04-14T03:16:34.302Z,27.03
2018-04-14T03:19:01.808Z,28.00
2018-04-14T03:21:29.339Z,26.73
2018-04-14T03:23:56.862Z,28.60
2018-04-14T03:26:24.367Z,28.77
2018-04-14T03:28:51.909Z,28.47
2018-04-14T03:31:19.482Z,28.90
2018-04-14T03:33:46.945Z,26.23
2018-04-14T03:36:14.472Z,29.10
2018-04-14T03:38:41.993Z,27.67
2018-04-14T03:41:09.520Z,26.13
2018-04-14T03:43:37.066Z,25.43
2018-04-14T03:46:04.875Z,27.03
2018-04-14T03:48:32.649Z,28.37
2018-04-14T03:51:00.184Z,27.90
2018-04-14T03:53:27.712Z,29.27
2018-04-14T03:55:55.226Z,30.70
2018-04-14T03:58:22.759Z,29.93
2018-04-14T04:00:50.295Z,31.83
2018-04-14T04:03:17.800Z,32.07
2018-04-14T04:05:45.336Z,33.87
2018-04-14T04:08:12.853Z,32.93
2018-04-14T04:10:40.688Z,32.90
2018-04-14T04:13:08.337Z,34.53
2018-04-14T04:15:36.780Z,31.57
2018-04-14T04:18:04.296Z,30.77
2018-04-14T04:20:56.743Z,30.93
2018-04-14T04:23:36.478Z,28.13
2018-04-14T04:26:04.046Z,29.17
2018-04-14T04:28:31.915Z,27.37
2018-04-14T04:30:59.448Z,26.47
2018-04-14T04:33:26.991Z,27.00
2018-04-14T04:35:54.493Z,26.87
2018-04-14T04:38:22.007Z,29.50
2018-04-14T04:40:49.606Z,27.10
2018-04-14T04:43:17.118Z,30.03
2018-04-14T04:45:44.646Z,32.50
2018-04-14T04:48:12.193Z,30.63
2018-04-14T04:50:39.707Z,33.10
2018-04-14T04:53:07.244Z,33.87
2018-04-14T04:55:35.083Z,36.60
2018-04-14T04:58:02.588Z,35.87
2018-04-14T05:00:30.146Z,40.40
2018-04-14T05:02:57.651Z,39.13
2018-04-14T05:05:25.187Z,40.03
2018-04-14T05:07:52.701Z,42.40
2018-04-14T05:10:20.544Z,41.20
2018-04-14T05:12:48.058Z,47.57
2018-04-14T05:15:15.586Z,44.37
2018-04-14T05:17:43.116Z,41.30
2018-04-14T05:20:10.637Z,43.87
2018-04-14T05:22:38.225Z,47.23
2018-04-14T05:25:05.739Z,45.00
2018-04-14T05:27:33.399Z,46.77
2018-04-14T05:30:00.946Z,45.57
2018-04-14T05:32:28.608Z,45.20
2018-04-14T05:34:56.573Z,44.37
2018-04-14T05:37:24.343Z,45.27
2018-04-14T05:39:51.898Z,46.00
2018-04-14T05:42:19.670Z,47.40
2018-04-14T05:44:47.528Z,45.63
2018-04-14T05:47:15.068Z,47.00
2018-04-14T05:49:42.957Z,46.97
2018-04-14T05:52:10.499Z,41.53
2018-04-14T05:54:38.020Z,40.10
2018-04-14T05:57:05.564Z,41.03
2018-04-14T05:59:33.119Z,43.10
2018-04-14T06:02:00.638Z,38.33
2018-04-14T06:04:28.218Z,40.67
2018-04-14T06:06:55.710Z,41.37
2018-04-14T06:09:23.268Z,41.70
2018-04-14T06:11:50.787Z,41.37
2018-04-14T06:14:18.307Z,39.43
2018-04-14T06:16:45.928Z,42.63
2018-04-14T06:19:13.427Z,40.77
2018-04-14T06:21:40.969Z,40.10
2018-04-14T06:24:09.316Z,39.03
2018-04-14T06:26:36.993Z,39.93
2018-04-14T06:29:04.535Z,40.70
2018-04-14T06:31:32.019Z,39.50
2018-04-14T06:33:59.870Z,44.00
2018-04-14T06:36:27.416Z,42.90
2018-04-14T06:38:54.937Z,41.80
2018-04-14T06:41:22.755Z,43.53
2018-04-14T06:43:50.267Z,44.37
2018-04-14T06:46:17.833Z,47.03
2018-04-14T06:48:45.372Z,47.40
2018-04-14T06:51:12.892Z,46.30
2018-04-14T06:53:40.532Z,48.30
2018-04-14T06:56:08.205Z,49.20
2018-04-14T06:58:35.895Z,50.43
2018-04-14T07:01:03.433Z,53.30
2018-04-14T07:03:31.208Z,51.57
2018-04-14T07:05:58.750Z,53.20
2018-04-14T07:08:26.278Z,52.73
2018-04-14T07:10:53.846Z,54.13
2018-04-14T07:13:21.468Z,54.83
2018-04-14T07:15:48.988Z,54.13
2018-04-14T07:18:16.589Z,52.93
2018-04-14T07:20:44.334Z,52.43
2018-04-14T07:23:11.929Z,51.50
2018-04-14T07:25:39.488Z,51.73
2018-04-14T07:28:07.034Z,50.97
2018-04-14T07:30:34.582Z,54.20
2018-04-14T07:33:02.451Z,52.13
2018-04-14T07:35:30.217Z,55.10
2018-04-14T07:37:58.150Z,53.97
2018-04-14T07:40:25.764Z,54.33
2018-04-14T07:42:53.443Z,54.90
2018-04-14T07:45:20.996Z,56.57
2018-04-14T07:47:49.456Z,57.10
2018-04-14T07:50:18.137Z,58.43
2018-04-14T07:52:45.774Z,57.60
2018-04-14T07:55:13.362Z,57.07
2018-04-14T07:57:40.914Z,57.10
2018-04-14T08:00:08.460Z,60.90
2018-04-14T08:02:36.023Z,59.90
2018-04-14T08:05:03.569Z,61.23
2018-04-14T08:07:31.130Z,61.50
2018-04-14T08:09:58.778Z,61.43
2018-04-14T08:12:26.338Z,60.90
2018-04-14T08:14:53.904Z,57.40
2018-04-14T08:17:21.426Z,61.17
2018-04-14T08:19:48.987Z,60.37
2018-04-14T08:22:16.518Z,61.63
2018-04-14T08:24:44.064Z,61.17
2018-04-14T08:27:11.699Z,62.67
2018-04-14T08:29:39.243Z,59.60
2018-04-14T08:32:06.855Z,67.10
2018-04-14T08:34:34.905Z,62.50
2018-04-14T08:37:02.513Z,59.77
2018-04-14T08:39:30.045Z,62.27
2018-04-14T08:41:57.638Z,63.43
2018-04-14T08:44:25.243Z,62.80
2018-04-14T08:46:52.818Z,63.57
2018-04-14T08:49:20.356Z,61.67
2018-04-14T08:51:47.879Z,62.20
2018-04-14T08:54:15.446Z,61.50
2018-04-14T08:56:42.974Z,60.40
2018-04-14T08:59:10.516Z,60.23
2018-04-14T09:01:38.212Z,58.47
2018-04-14T09:04:06.309Z,58.60
2018-04-14T09:06:33.907Z,58.10
2018-04-14T09:09:01.552Z,60.20
2018-04-14T09:11:29.107Z,61.17
2018-04-14T09:13:56.640Z,58.40
2018-04-14T09:16:24.151Z,55.03
2018-04-14T09:18:52.078Z,52.90
2018-04-14T09:21:19.623Z,52.43
2018-04-14T09:23:47.496Z,52.83
2018-04-14T09:26:15.011Z,55.03
2018-04-14T09:28:42.536Z,51.47
2018-04-14T09:31:10.067Z,49.93
2018-04-14T09:33:37.583Z,49.90
2018-04-14T09:36:05.201Z,50.03
2018-04-14T09:38:32.744Z,47.23
2018-04-14T09:41:00.317Z,44.10
2018-04-14T09:43:28.004Z,46.07
2018-04-14T09:45:55.847Z,44.17
2018-04-14T09:48:23.383Z,44.13
2018-04-14T09:50:50.960Z,44.23
2018-04-14T09:53:18.478Z,40.07
2018-04-14T09:55:46.028Z,41.50
2018-04-14T09:58:14.176Z,39.30
2018-04-14T10:00:47.588Z,38.40
2018-04-14T10:03:20.922Z,36.77
2018-04-14T10:05:50.450Z,38.27
2018-04-14T10:08:18.245Z,37.77
2018-04-14T10:10:45.803Z,37.50
2018-04-14T10:13:13.330Z,37.13
2018-04-14T10:15:40.847Z,37.20
2018-04-14T10:18:08.594Z,35.97
2018-04-14T10:20:36.120Z,34.50
2018-04-14T10:23:03.665Z,35.90
2018-04-14T10:25:31.198Z,34.70
2018-04-14T10:27:58.724Z,35.67
2018-04-14T10:30:26.273Z,36.90
2018-04-14T10:32:53.838Z,35.13
2018-04-14T10:35:21.440Z,35.87
2018-04-14T10:37:49.071Z,35.63
2018-04-14T10:40:16.565Z,34.87
2018-04-14T10:42:44.131Z,32.07
2018-04-14T10:45:11.662Z,33.00
2018-04-14T10:47:39.239Z,36.37
2018-04-14T10:50:06.797Z,35.50
2018-04-14T10:52:34.348Z,33.63
2018-04-14T10:55:01.925Z,33.90
2018-04-14T10:57:29.518Z,33.30
2018-04-14T10:59:57.122Z,33.03
2018-04-14T11:02:25.179Z,34.33
2018-04-14T11:04:52.775Z,31.97
2018-04-14T11:07:20.276Z,33.73
2018-04-14T11:09:47.843Z,32.80
2018-04-14T11:12:15.405Z,34.67
2018-04-14T11:14:42.945Z,31.10
2018-04-14T11:17:10.526Z,31.27
2018-04-14T11:19:38.090Z,33.83
2018-04-14T11:22:05.709Z,31.30
2018-04-14T11:24:33.308Z,34.87
2018-04-14T11:27:00.976Z,31.10
2018-04-14T11:29:28.501Z,31.40
2018-04-14T11:31:56.037Z,30.90
2018-04-14T11:34:23.576Z,31.43
2018-04-14T11:36:51.150Z,31.23
2018-04-14T11:39:18.694Z,30.77
2018-04-14T11:41:46.489Z,33.70
2018-04-14T11:44:14.324Z,33.47
2018-04-14T11:46:41.847Z,32.50
2018-04-14T11:49:09.463Z,31.73
2018-04-14T11:51:37.012Z,31.50
2018-04-14T11:54:04.542Z,31.87
2018-04-14T11:56:32.124Z,31.13
2018-04-14T11:58:59.657Z,31.10
2018-04-14T12:01:27.227Z,31.83
2018-04-14T12:03:55.015Z,31.73
2018-04-14T12:06:22.618Z,30.97
2018-04-14T12:08:50.270Z,32.60
2018-04-14T12:11:17.831Z,33.27
2018-04-14T12:13:45.411Z,34.50
2018-04-14T12:16:12.942Z,34.20
2018-04-14T12:18:40.488Z,34.33
2018-04-14T12:21:08.194Z,35.97
2018-04-14T12:23:35.744Z,38.27
2018-04-14T12:26:03.306Z,36.57
2018-04-14T12:28:31.103Z,37.13
2018-04-14T12:30:58.689Z,38.00
2018-04-14T12:33:26.210Z,38.57
2018-04-14T12:35:53.777Z,39.87
2018-04-14T12:38:21.314Z,40.70
2018-04-14T12:40:48.917Z,41.67
2018-04-14T12:43:16.457Z,41.97
2018-04-14T12:45:43.966Z,40.93
2018-04-14T12:48:11.510Z,41.47
2018-04-14T12:50:39.132Z,42.30
2018-04-14T12:53:06.816Z,40.80
2018-04-14T12:55:35.537Z,39.70
2018-04-14T12:58:03.075Z,39.53
2018-04-14T13:00:31.981Z,42.00
2018-04-14T13:02:59.596Z,38.03
2018-04-14T13:05:27.175Z,38.90
2018-04-14T13:07:54.971Z,36.00
2018-04-14T13:10:22.621Z,35.00
2018-04-14T13:12:50.160Z,37.60
2018-04-14T13:15:17.677Z,38.30
2018-04-14T13:17:45.297Z,36.17
2018-04-14T13:20:12.927Z,36.43
2018-04-14T13:22:40.558Z,36.90
2018-04-14T13:25:08.129Z,36.50
2018-04-14T13:27:35.739Z,37.07
2018-04-14T13:30:03.283Z,37.50
2018-04-14T13:32:31.134Z,34.10
2018-04-14T13:34:59.073Z,35.70
2018-04-14T13:37:26.595Z,36.23
2018-04-14T13:39:54.145Z,38.07
2018-04-14T13:42:21.950Z,36.40
2018-04-14T13:44:49.515Z,38.80
2018-04-14T13:47:17.116Z,37.20
2018-04-14T13:49:44.624Z,36.10
2018-04-14T13:52:12.397Z,37.70
2018-04-14T13:54:39.924Z,38.37
2018-04-14T13:57:07.487Z,37.10
2018-04-14T13:59:35.284Z,38.33
2018-04-14T14:02:02.982Z,37.90
2018-04-14T14:04:30.485Z,37.00
2018-04-14T14:06:58.024Z,35.40
2018-04-14T14:09:25.580Z,37.00
2018-04-14T14:11:53.163Z,37.47
2018-04-14T14:14:20.826Z,36.80
2018-04-14T14:16:48.617Z,38.87
2018-04-14T14:19:16.401Z,39.00
2018-04-14T14:21:43.980Z,37.00
2018-04-14T14:24:11.499Z,40.10
2018-04-14T14:26:39.040Z,36.33
2018-04-14T14:29:06.563Z,35.90
2018-04-14T14:31:34.167Z,37.70
2018-04-14T14:34:01.689Z,39.93
2018-04-14T14:36:29.514Z,38.53
2018-04-14T14:38:57.008Z,36.60
2018-04-14T14:41:24.543Z,35.93
2018-04-14T14:43:52.095Z,37.90
2018-04-14T14:46:19.631Z,37.13
2018-04-14T14:48:47.425Z,38.97
2018-04-14T14:51:14.944Z,38.80
2018-04-14T14:53:42.492Z,40.30
2018-04-14T14:56:10.088Z,40.93
2018-04-14T14:58:37.643Z,39.60
2018-04-14T15:01:05.211Z,39.97
2018-04-14T15:03:32.745Z,38.90
2018-04-14T15:06:00.302Z,38.17
2018-04-14T15:08:27.816Z,38.00
2018-04-14T15:10:55.425Z,38.47
2018-04-14T15:13:23.447Z,36.70
2018-04-14T15:15:50.996Z,35.57
2018-04-14T15:18:18.687Z,38.53
2018-04-14T15:20:46.224Z,36.60
2018-04-14T15:23:13.738Z,36.20
2018-04-14T15:25:41.246Z,36.43
2018-04-14T15:28:08.823Z,35.00
2018-04-14T15:30:36.341Z,36.70
2018-04-14T15:33:03.876Z,35.10
2018-04-14T15:35:31.394Z,33.93
2018-04-14T15:37:58.955Z,34.07
2018-04-14T15:40:26.571Z,33.90
2018-04-14T15:42:54.072Z,32.90
2018-04-14T15:45:21.593Z,32.93
2018-04-14T15:47:49.429Z,33.80
2018-04-14T15:50:17.043Z,32.93
2018-04-14T15:52:44.593Z,33.57
2018-04-14T15:55:12.289Z,32.57
2018-04-14T15:57:39.956Z,32.83
2018-04-14T16:00:07.531Z,32.90
2018-04-14T16:02:35.081Z,35.20
2018-04-14T16:05:02.634Z,36.90
2018-04-14T16:07:30.323Z,40.43
2018-04-14T16:09:57.840Z,38.07
2018-04-14T16:12:25.540Z,37.80
2018-04-14T16:14:53.476Z,37.07
2018-04-14T16:17:21.024Z,35.67
2018-04-14T16:19:48.611Z,36.20
2018-04-14T16:22:16.162Z,36.13
2018-04-14T16:24:43.698Z,37.63
2018-04-14T16:27:11.225Z,37.20
2018-04-14T16:29:38.819Z,35.37
2018-04-14T16:32:06.379Z,32.67
2018-04-14T16:34:34.621Z,36.73
2018-04-14T16:37:02.357Z,37.13
2018-04-14T16:39:29.896Z,35.50
2018-04-14T16:41:57.481Z,36.77
2018-04-14T16:44:25.020Z,34.87
2018-04-14T16:46:52.586Z,35.47
2018-04-14T16:49:20.201Z,34.33
2018-04-14T16:51:47.746Z,34.23
2018-04-14T16:54:15.276Z,35.33
2018-04-14T16:56:42.826Z,34.17
2018-04-14T16:59:14.197Z,34.47
2018-04-14T17:01:41.715Z,33.27
2018-04-14T17:04:09.302Z,32.97
2018-04-14T17:06:37.170Z,33.33
2018-04-14T17:09:05.320Z,33.83
2018-04-14T17:11:32.887Z,33.93
2018-04-14T17:14:00.446Z,31.70
2018-04-14T17:16:27.982Z,32.77
2018-04-14T17:18:55.804Z,34.03
2018-04-14T17:21:23.670Z,32.33
2018-04-14T17:23:51.284Z,33.90
2018-04-14T17:26:18.821Z,33.07
2018-04-14T17:28:46.377Z,34.07
2018-04-14T17:31:14.294Z,33.27
2018-04-14T17:33:41.890Z,33.73
2018-04-14T17:36:09.734Z,35.53
2018-04-14T17:38:37.371Z,35.57
2018-04-14T17:41:05.181Z,33.50
2018-04-14T17:43:33.044Z,35.70
2018-04-14T17:46:00.681Z,32.60
2018-04-14T17:48:28.270Z,39.70
2018-04-14T17:50:55.824Z,43.33
2018-04-14T17:53:23.346Z,41.77
2018-04-14T17:55:51.118Z,37.57
2018-04-14T17:58:18.663Z,37.27
2018-04-14T18:00:46.218Z,34.90
2018-04-14T18:03:14.176Z,36.97
2018-04-14T18:05:41.723Z,36.63
2018-04-14T18:08:09.567Z,37.10
2018-04-14T18:10:37.067Z,36.80
2018-04-14T18:13:04.647Z,42.00
2018-04-14T18:15:32.259Z,41.20
2018-04-14T18:17:59.769Z,41.30
2018-04-14T18:20:27.364Z,40.17
2018-04-14T18:22:55.128Z,40.90
2018-04-14T18:25:22.727Z,40.70
2018-04-14T18:27:50.255Z,40.10
2018-04-14T18:30:17.781Z,42.37
2018-04-14T18:32:45.425Z,42.80
2018-04-14T18:35:12.923Z,42.53
2018-04-14T18:37:40.626Z,43.73
2018-04-14T18:40:08.142Z,44.17
2018-04-14T18:42:35.709Z,47.67
2018-04-14T18:45:03.263Z,49.20
2018-04-14T18:47:30.764Z,47.50
2018-04-14T18:49:58.606Z,48.00
2018-04-14T18:52:26.137Z,51.07
2018-04-14T18:54:53.650Z,51.43
2018-04-14T18:57:21.241Z,52.20
2018-04-14T18:59:48.769Z,53.93
2018-04-14T19:02:16.293Z,50.57
2018-04-14T19:04:43.856Z,51.47
2018-04-14T19:07:11.502Z,55.33
2018-04-14T19:09:39.079Z,52.40
2018-04-14T19:12:06.636Z,54.97
2018-04-14T19:14:34.231Z,58.53
2018-04-14T19:17:01.826Z,57.40
2018-04-14T19:19:29.447Z,57.23
2018-04-14T19:21:56.968Z,60.10
2018-04-14T19:24:24.551Z,56.43
2018-04-14T19:26:52.142Z,56.63
2018-04-14T19:29:19.659Z,55.00
2018-04-14T19:31:47.182Z,60.30
2018-04-14T19:34:14.826Z,55.97
2018-04-14T19:36:42.337Z,55.80
2018-04-14T19:39:09.857Z,58.70
2018-04-14T19:41:37.528Z,60.30
2018-04-14T19:44:05.122Z,62.40
2018-04-14T19:46:32.648Z,63.20
2018-04-14T19:49:00.178Z,62.20
2018-04-14T19:51:27.781Z,62.50
2018-04-14T19:53:55.598Z,66.13
2018-04-14T19:56:23.593Z,70.13
2018-04-14T19:58:51.139Z,66.70
2018-04-14T20:01:18.787Z,67.80
2018-04-14T20:03:46.330Z,64.63
2018-04-14T20:06:13.860Z,67.43
2018-04-14T20:08:41.451Z,68.00
2018-04-14T20:11:09.254Z,62.57
2018-04-14T20:13:36.798Z,63.50
2018-04-14T20:16:04.335Z,62.90
2018-04-14T20:18:31.915Z,66.50
2018-04-14T20:20:59.440Z,64.93
2018-04-14T20:23:26.983Z,62.97
2018-04-14T20:25:54.807Z,65.03
2018-04-14T20:28:22.457Z,64.27
2018-04-14T20:30:50.238Z,65.10
2018-04-14T20:33:17.756Z,64.43
2018-04-14T20:35:45.449Z,63.33
2018-04-14T20:38:13.338Z,62.70
2018-04-14T20:40:40.867Z,58.60
2018-04-14T20:43:08.386Z,64.70
2018-04-14T20:45:36.052Z,56.30
2018-04-14T20:48:03.579Z,58.70
2018-04-14T20:50:31.221Z,59.13
2018-04-14T20:52:59.604Z,57.90
2018-04-14T20:55:27.255Z,54.53
2018-04-14T20:57:54.794Z,54.57
2018-04-14T21:00:22.822Z,53.33
2018-04-14T21:02:50.602Z,55.30
2018-04-14T21:05:18.284Z,56.03
2018-04-14T21:07:45.986Z,55.50
2018-04-14T21:10:13.540Z,54.33
2018-04-14T21:12:41.173Z,56.03
2018-04-14T21:15:08.700Z,61.53
2018-04-14T21:17:36.263Z,56.83
2018-04-14T21:20:03.830Z,54.60
2018-04-14T21:22:31.364Z,54.83
2018-04-14T21:24:58.927Z,52.27
2018-04-14T21:27:26.563Z,54.43
2018-04-14T21:29:54.092Z,54.53
2018-04-14T21:32:21.624Z,55.60
2018-04-14T21:34:49.255Z,54.30
2018-04-14T21:37:16.792Z,52.60
2018-04-14T21:39:44.489Z,54.33
2018-04-14T21:42:12.197Z,53.97
2018-04-14T21:44:39.794Z,55.30
2018-04-14T21:47:07.868Z,56.40
2018-04-14T21:49:35.466Z,54.43
2018-04-14T21:52:03.008Z,57.40
2018-04-14T21:54:30.634Z,55.43
2018-04-14T21:56:58.272Z,55.97
2018-04-14T21:59:26.098Z,56.53
2018-04-14T22:01:53.634Z,55.27
2018-04-14T22:04:21.145Z,55.43
2018-04-14T22:06:48.670Z,56.13
2018-04-14T22:09:16.232Z,57.27
2018-04-14T22:11:44.756Z,58.67
2018-04-14T22:14:24.190Z,55.47
2018-04-14T22:16:51.797Z,57.57
2018-04-14T22:19:19.316Z,59.80
2018-04-14T22:21:46.866Z,58.57
2018-04-14T22:24:14.426Z,57.73
2018-04-14T22:26:42.089Z,59.07
2018-04-14T22:29:09.588Z,61.50
2018-04-14T22:31:37.115Z,59.07
2018-04-14T22:34:04.666Z,59.63
2018-04-14T22:36:32.236Z,60.77
2018-04-14T22:38:59.785Z,59.60
2018-04-14T22:41:27.353Z,64.43
2018-04-14T22:43:55.215Z,63.70
2018-04-14T22:46:22.752Z,63.23
2018-04-14T22:48:50.338Z,64.67
2018-04-14T22:51:17.925Z,61.70
2018-04-14T22:53:45.450Z,62.93
2018-04-14T22:56:13.116Z,60.20
2018-04-14T22:58:40.703Z,64.17
2018-04-14T23:01:08.238Z,65.60
2018-04-14T23:03:35.785Z,64.83
2018-04-14T23:06:03.553Z,63.93
2018-04-14T23:08:31.079Z,64.67
2018-04-14T23:10:58.700Z,66.77
2018-04-14T23:13:26.273Z,63.87
2018-04-14T23:15:53.868Z,60.70
2018-04-14T23:18:21.386Z,63.10
2018-04-14T23:20:48.896Z,65.40
2018-04-14T23:23:16.474Z,59.77
2018-04-14T23:25:43.999Z,64.10
2018-04-14T23:28:11.729Z,63.90
2018-04-14T23:30:39.261Z,65.77
2018-04-14T23:33:06.791Z,62.13
2018-04-14T23:35:34.443Z,64.17
2018-04-14T23:38:01.965Z,63.40
2018-04-14T23:40:29.499Z,61.20
2018-04-14T23:42:57.018Z,62.87
2018-04-14T23:45:24.547Z,59.20
2018-04-14T23:47:52.079Z,60.70
2018-04-14T23:50:19.593Z,61.83
2018-04-14T23:52:47.133Z,65.33
2018-04-14T23:55:14.655Z,60.07
2018-04-14T23:57:42.182Z,61.97
